SHU9734 UHMM-PANC
Flight info
| Callsign | SHU9734 |
|---|---|
| Flight time | N/A |
| Altitude | 31000 |
| Route | MEBAR5E MEBAR B216 GINAN T454 BUSUL A827 BUMAT A828 SOMEG/K0832F330 A828 GIRLO N222 VALDA/N0438F330 H222 SLEDD DCT WINOR KROTO5 |
| Aircraft | MD88/M-SDFGIRWY/C |
Departure
| Time | 2026-04-24 13:42 |
|---|---|
| Airport | Sokol Airport (UHMM) |
Arrival
| Time | N/A |
|---|---|
| Airport | Ted Stevens Anchorage International Airport (PANC) |
| Time | Latitude | Longitude | Altitude | Speed | Heading |
|---|---|---|---|---|---|
| 2026-04-24 13:11 | 59.91274 | 150.73002 | 583 ft | 0 kts | 5° |
| 2026-04-24 13:30 | 59.91286 | 150.73004 | 583 ft | 4 kts | 0° |
| 2026-04-24 13:30 | 59.91307 | 150.72985 | 583 ft | 1 kts | 312° |
| 2026-04-24 13:31 | 59.91312 | 150.72963 | 583 ft | 3 kts | 295° |
| 2026-04-24 13:31 | 59.91319 | 150.72896 | 583 ft | 4 kts | 272° |
| 2026-04-24 13:31 | 59.91317 | 150.72829 | 583 ft | 5 kts | 260° |
| 2026-04-24 13:31 | 59.91303 | 150.72757 | 583 ft | 3 kts | 245° |
| 2026-04-24 13:32 | 59.91284 | 150.72706 | 583 ft | 0 kts | 225° |
| 2026-04-24 13:32 | 59.91270 | 150.72699 | 583 ft | 2 kts | 190° |
| 2026-04-24 13:32 | 59.91232 | 150.72689 | 583 ft | 2 kts | 185° |
| 2026-04-24 13:32 | 59.91215 | 150.72686 | 583 ft | 0 kts | 185° |
| 2026-04-24 13:37 | 59.91192 | 150.72682 | 583 ft | 11 kts | 185° |
| 2026-04-24 13:37 | 59.91101 | 150.72660 | 585 ft | 7 kts | 198° |
| 2026-04-24 13:37 | 59.91076 | 150.72610 | 585 ft | 7 kts | 251° |
| 2026-04-24 13:38 | 59.91076 | 150.72429 | 582 ft | 19 kts | 274° |
| 2026-04-24 13:38 | 59.91088 | 150.72136 | 582 ft | 23 kts | 275° |
| 2026-04-24 13:38 | 59.91105 | 150.71764 | 583 ft | 30 kts | 274° |
| 2026-04-24 13:38 | 59.91117 | 150.71333 | 586 ft | 33 kts | 273° |
| 2026-04-24 13:39 | 59.91134 | 150.70856 | 585 ft | 37 kts | 275° |
| 2026-04-24 13:39 | 59.91158 | 150.70331 | 582 ft | 39 kts | 275° |
| 2026-04-24 13:39 | 59.91176 | 150.69796 | 585 ft | 39 kts | 275° |
| 2026-04-24 13:39 | 59.91191 | 150.69336 | 586 ft | 29 kts | 270° |
| 2026-04-24 13:40 | 59.91204 | 150.69106 | 584 ft | 10 kts | 300° |
| 2026-04-24 13:40 | 59.91218 | 150.69027 | 584 ft | 5 kts | 269° |
| 2026-04-24 13:40 | 59.91211 | 150.68998 | 584 ft | 4 kts | 229° |
| 2026-04-24 13:40 | 59.91197 | 150.68982 | 584 ft | 3 kts | 194° |
| 2026-04-24 13:41 | 59.91183 | 150.68984 | 584 ft | 3 kts | 164° |
| 2026-04-24 13:41 | 59.91170 | 150.69008 | 584 ft | 1 kts | 111° |
| 2026-04-24 13:41 | 59.91169 | 150.69066 | 584 ft | 7 kts | 90° |
| 2026-04-24 13:41 | 59.91173 | 150.69185 | 585 ft | 10 kts | 90° |
| 2026-04-24 13:42 | 59.91172 | 150.69218 | 585 ft | 2 kts | 92° |
| 2026-04-24 13:42 | 59.91168 | 150.69380 | 586 ft | 42 kts | 93° |
| 2026-04-24 13:42 | 59.91159 | 150.70921 | 694 ft | 167 kts | 89° |
| 2026-04-24 13:42 | 59.91041 | 150.73440 | 1693 ft | 194 kts | 99° |
| 2026-04-24 13:43 | 59.90651 | 150.76126 | 2605 ft | 206 kts | 109° |
| 2026-04-24 13:43 | 59.89913 | 150.78519 | 3861 ft | 174 kts | 129° |
| 2026-04-24 13:43 | 59.88988 | 150.79897 | 5346 ft | 193 kts | 141° |
| 2026-04-24 13:43 | 59.87490 | 150.80727 | 5465 ft | 258 kts | 186° |
| 2026-04-24 13:44 | 59.85896 | 150.79106 | 6494 ft | 262 kts | 227° |
| 2026-04-24 13:44 | 59.85019 | 150.76013 | 7469 ft | 262 kts | 258° |
| 2026-04-24 13:44 | 59.84980 | 150.72322 | 7922 ft | 274 kts | 288° |
| 2026-04-24 13:44 | 59.85795 | 150.68907 | 8493 ft | 275 kts | 307° |
| 2026-04-24 13:45 | 59.86846 | 150.65778 | 9027 ft | 271 kts | 307° |
| 2026-04-24 13:45 | 59.87866 | 150.62624 | 9571 ft | 272 kts | 305° |
| 2026-04-24 13:45 | 59.88838 | 150.59380 | 10116 ft | 273 kts | 303° |
| 2026-04-24 13:45 | 59.89759 | 150.56064 | 10629 ft | 274 kts | 302° |
| 2026-04-24 13:46 | 59.90635 | 150.52675 | 11148 ft | 276 kts | 300° |
| 2026-04-24 13:46 | 59.91478 | 150.49222 | 11673 ft | 277 kts | 300° |
| 2026-04-24 13:46 | 59.92389 | 150.45866 | 12210 ft | 273 kts | 313° |
| 2026-04-24 13:46 | 59.93883 | 150.43684 | 12769 ft | 267 kts | 343° |
| 2026-04-24 13:47 | 59.95714 | 150.43420 | 13325 ft | 271 kts | 12° |
| 2026-04-24 13:47 | 59.97434 | 150.45109 | 13891 ft | 283 kts | 37° |
| 2026-04-24 13:47 | 59.98382 | 150.46865 | 14227 ft | 280 kts | 43° |
| 2026-04-24 13:47 | 59.99646 | 150.49854 | 14730 ft | 286 kts | 57° |
| 2026-04-24 13:48 | 59.99756 | 150.53789 | 15348 ft | 305 kts | 107° |
| 2026-04-24 13:48 | 59.98892 | 150.57636 | 16193 ft | 309 kts | 102° |
| 2026-04-24 13:48 | 59.98778 | 150.61827 | 16612 ft | 296 kts | 71° |
| 2026-04-24 13:48 | 59.99716 | 150.65347 | 17165 ft | 285 kts | 41° |
| 2026-04-24 13:49 | 60.01332 | 150.67590 | 17737 ft | 285 kts | 27° |
| 2026-04-24 13:49 | 60.03012 | 150.69708 | 18301 ft | 288 kts | 33° |
| 2026-04-24 13:49 | 60.04547 | 150.72318 | 18797 ft | 292 kts | 41° |
| 2026-04-24 13:49 | 60.05936 | 150.75305 | 19295 ft | 295 kts | 46° |
| 2026-04-24 13:50 | 60.07218 | 150.78560 | 19807 ft | 300 kts | 50° |
| 2026-04-24 13:50 | 60.08422 | 150.81996 | 20323 ft | 303 kts | 52° |
| 2026-04-24 13:50 | 60.09568 | 150.85555 | 20855 ft | 306 kts | 53° |
| 2026-04-24 13:50 | 60.10682 | 150.89208 | 21392 ft | 308 kts | 54° |
| 2026-04-24 13:51 | 60.11778 | 150.92929 | 21940 ft | 311 kts | 55° |
| 2026-04-24 13:51 | 60.12862 | 150.96685 | 22497 ft | 313 kts | 56° |
| 2026-04-24 13:51 | 60.14092 | 151.00239 | 23067 ft | 309 kts | 42° |
| 2026-04-24 13:51 | 60.15789 | 151.02873 | 23648 ft | 310 kts | 31° |
| 2026-04-24 13:52 | 60.17637 | 151.05166 | 24138 ft | 314 kts | 32° |
| 2026-04-24 13:52 | 60.19176 | 151.08305 | 24626 ft | 323 kts | 56° |
| 2026-04-24 13:52 | 60.19926 | 151.12585 | 25095 ft | 330 kts | 76° |
| 2026-04-24 13:52 | 60.20270 | 151.17134 | 25599 ft | 326 kts | 73° |
| 2026-04-24 13:53 | 60.20843 | 151.21458 | 26112 ft | 313 kts | 59° |
| 2026-04-24 13:53 | 60.21906 | 151.25167 | 26650 ft | 302 kts | 52° |
| 2026-04-24 13:53 | 60.23054 | 151.28665 | 27183 ft | 296 kts | 52° |
| 2026-04-24 13:53 | 60.24153 | 151.32091 | 27723 ft | 288 kts | 53° |
| 2026-04-24 13:54 | 60.25200 | 151.35466 | 28285 ft | 280 kts | 54° |
| 2026-04-24 13:54 | 60.26192 | 151.38751 | 28851 ft | 270 kts | 54° |
| 2026-04-24 13:54 | 60.27132 | 151.41940 | 29418 ft | 258 kts | 54° |
| 2026-04-24 13:54 | 60.28010 | 151.44990 | 30003 ft | 245 kts | 54° |
| 2026-04-24 13:55 | 60.28825 | 151.47883 | 30504 ft | 229 kts | 55° |
| 2026-04-24 13:55 | 60.29579 | 151.50597 | 30864 ft | 218 kts | 54° |
| 2026-04-24 13:55 | 60.30320 | 151.53253 | 30922 ft | 218 kts | 54° |
| 2026-04-24 13:55 | 60.31059 | 151.55892 | 30928 ft | 220 kts | 55° |
| 2026-04-24 13:56 | 60.31818 | 151.58616 | 30959 ft | 220 kts | 55° |
| 2026-04-24 13:56 | 60.32564 | 151.61300 | 31021 ft | 219 kts | 55° |
| 2026-04-24 13:56 | 60.33307 | 151.63982 | 31031 ft | 220 kts | 55° |
| 2026-04-24 13:56 | 60.34046 | 151.66646 | 31027 ft | 221 kts | 55° |
| 2026-04-24 13:57 | 60.34793 | 151.69348 | 31070 ft | 220 kts | 55° |
| 2026-04-24 13:57 | 60.35537 | 151.72047 | 31113 ft | 220 kts | 55° |
| 2026-04-24 13:57 | 60.36281 | 151.74751 | 31136 ft | 221 kts | 55° |
| 2026-04-24 13:57 | 60.37029 | 151.77468 | 31170 ft | 221 kts | 55° |
| 2026-04-24 13:58 | 60.37776 | 151.80172 | 31200 ft | 220 kts | 55° |
| 2026-04-24 13:58 | 60.38528 | 151.82884 | 31193 ft | 222 kts | 55° |
| 2026-04-24 13:58 | 60.39279 | 151.85605 | 31206 ft | 222 kts | 56° |
| 2026-04-24 13:58 | 60.40027 | 151.88325 | 31242 ft | 221 kts | 55° |
| 2026-04-24 13:59 | 60.40771 | 151.91020 | 31278 ft | 221 kts | 55° |
| 2026-04-24 13:59 | 60.41521 | 151.93742 | 31266 ft | 222 kts | 56° |
| 2026-04-24 13:59 | 60.42270 | 151.96500 | 31288 ft | 223 kts | 56° |
| 2026-04-24 13:59 | 60.43008 | 151.99236 | 31357 ft | 220 kts | 56° |
| 2026-04-24 14:00 | 60.43752 | 152.01997 | 31353 ft | 221 kts | 56° |
| 2026-04-24 14:00 | 60.44484 | 152.04710 | 31316 ft | 223 kts | 56° |
| 2026-04-24 14:00 | 60.45228 | 152.07470 | 31360 ft | 222 kts | 56° |
| 2026-04-24 14:00 | 60.45966 | 152.10199 | 31422 ft | 220 kts | 56° |
| 2026-04-24 14:01 | 60.46706 | 152.12920 | 31395 ft | 223 kts | 56° |
| 2026-04-24 14:01 | 60.47459 | 152.15680 | 31369 ft | 223 kts | 56° |
| 2026-04-24 14:01 | 60.48202 | 152.18432 | 31439 ft | 222 kts | 56° |
| 2026-04-24 14:01 | 60.48956 | 152.21213 | 31430 ft | 224 kts | 56° |
| 2026-04-24 14:02 | 60.49725 | 152.24021 | 31267 ft | 232 kts | 56° |
| 2026-04-24 14:02 | 60.50526 | 152.26948 | 31109 ft | 242 kts | 56° |
| 2026-04-24 14:02 | 60.51358 | 152.30000 | 30997 ft | 251 kts | 56° |
| 2026-04-24 14:02 | 60.52186 | 152.33061 | 31092 ft | 251 kts | 56° |
| 2026-04-24 14:03 | 60.53045 | 152.36230 | 31099 ft | 256 kts | 56° |
| 2026-04-24 14:03 | 60.53913 | 152.39427 | 31101 ft | 261 kts | 57° |
| 2026-04-24 14:03 | 60.54794 | 152.42683 | 31090 ft | 266 kts | 57° |
| 2026-04-24 14:03 | 60.55691 | 152.46003 | 31105 ft | 271 kts | 57° |
| 2026-04-24 14:04 | 60.56609 | 152.49399 | 31108 ft | 278 kts | 57° |
| 2026-04-24 14:04 | 60.57561 | 152.52908 | 31107 ft | 289 kts | 57° |
| 2026-04-24 14:04 | 60.58551 | 152.56557 | 31110 ft | 299 kts | 57° |
| 2026-04-24 14:04 | 60.59553 | 152.60260 | 31108 ft | 306 kts | 57° |
| 2026-04-24 14:05 | 60.61630 | 152.67990 | 31105 ft | 317 kts | 58° |
| 2026-04-24 14:05 | 60.63749 | 152.76048 | 31109 ft | 329 kts | 58° |
| 2026-04-24 14:06 | 60.65955 | 152.84473 | 31109 ft | 341 kts | 58° |
| 2026-04-24 14:06 | 60.68222 | 152.93107 | 31108 ft | 353 kts | 58° |
| 2026-04-24 14:07 | 60.70584 | 153.02081 | 31108 ft | 365 kts | 58° |
| 2026-04-24 14:07 | 60.73024 | 153.11352 | 31116 ft | 376 kts | 58° |
| 2026-04-24 14:08 | 60.75538 | 153.20924 | 31116 ft | 388 kts | 58° |
| 2026-04-24 14:08 | 60.78121 | 153.30783 | 31116 ft | 399 kts | 59° |
| 2026-04-24 14:09 | 60.80774 | 153.40919 | 31120 ft | 409 kts | 59° |
| 2026-04-24 14:09 | 60.83460 | 153.51381 | 31114 ft | 419 kts | 60° |
| 2026-04-24 14:10 | 60.86175 | 153.62116 | 31115 ft | 429 kts | 60° |
| 2026-04-24 14:10 | 60.88950 | 153.73046 | 31112 ft | 434 kts | 60° |
| 2026-04-24 14:11 | 60.91745 | 153.84040 | 31112 ft | 434 kts | 60° |
| 2026-04-24 14:12 | 60.95933 | 154.00508 | 31114 ft | 434 kts | 60° |
| 2026-04-24 14:12 | 60.98728 | 154.11534 | 31119 ft | 434 kts | 60° |
| 2026-04-24 14:13 | 61.01505 | 154.22580 | 31117 ft | 434 kts | 60° |
| 2026-04-24 14:13 | 61.04229 | 154.33701 | 31119 ft | 435 kts | 61° |
| 2026-04-24 14:14 | 61.06959 | 154.44860 | 31120 ft | 435 kts | 60° |
| 2026-04-24 14:14 | 61.11073 | 154.61579 | 31121 ft | 435 kts | 60° |
| 2026-04-24 14:15 | 61.13797 | 154.72659 | 31130 ft | 431 kts | 61° |
| 2026-04-24 14:15 | 61.16555 | 154.83901 | 31132 ft | 441 kts | 61° |
| 2026-04-24 14:16 | 61.19317 | 154.95209 | 31137 ft | 437 kts | 61° |
| 2026-04-24 14:17 | 61.23338 | 155.12153 | 31136 ft | 436 kts | 62° |
| 2026-04-24 14:17 | 61.27356 | 155.29116 | 31136 ft | 436 kts | 62° |
| 2026-04-24 14:18 | 61.30045 | 155.40437 | 31133 ft | 437 kts | 62° |
| 2026-04-24 14:18 | 61.32738 | 155.51787 | 31133 ft | 437 kts | 62° |
| 2026-04-24 14:19 | 61.35406 | 155.63065 | 31135 ft | 437 kts | 62° |
| 2026-04-24 14:19 | 61.38095 | 155.74445 | 31136 ft | 437 kts | 62° |
| 2026-04-24 14:20 | 61.40821 | 155.85802 | 31135 ft | 437 kts | 61° |
| 2026-04-24 14:20 | 61.42728 | 155.97843 | 31139 ft | 441 kts | 77° |
| 2026-04-24 14:21 | 61.43837 | 156.10445 | 31129 ft | 441 kts | 77° |
| 2026-04-24 14:21 | 61.45044 | 156.23021 | 31134 ft | 441 kts | 76° |
| 2026-04-24 14:22 | 61.46355 | 156.35535 | 31130 ft | 440 kts | 75° |
| 2026-04-24 14:23 | 61.48369 | 156.54281 | 31127 ft | 440 kts | 75° |
| 2026-04-24 14:23 | 61.49690 | 156.66766 | 31130 ft | 440 kts | 75° |
| 2026-04-24 14:24 | 61.50998 | 156.79260 | 31125 ft | 439 kts | 75° |
| 2026-04-24 14:24 | 61.52232 | 156.91784 | 31123 ft | 438 kts | 76° |
| 2026-04-24 14:25 | 61.53237 | 157.02182 | 31128 ft | 438 kts | 76° |
| 2026-04-24 14:25 | 61.54666 | 157.16802 | 31128 ft | 437 kts | 75° |
| 2026-04-24 14:26 | 61.55889 | 157.29194 | 31130 ft | 437 kts | 76° |
| 2026-04-24 14:26 | 61.57123 | 157.41706 | 31138 ft | 444 kts | 75° |
| 2026-04-24 14:27 | 61.58397 | 157.54622 | 31143 ft | 457 kts | 75° |
| 2026-04-24 14:27 | 61.59674 | 157.67815 | 31145 ft | 464 kts | 76° |
| 2026-04-24 14:28 | 61.60882 | 157.81193 | 31147 ft | 467 kts | 77° |
| 2026-04-24 14:28 | 61.62088 | 157.94626 | 31150 ft | 468 kts | 76° |
| 2026-04-24 14:29 | 61.63315 | 158.08069 | 31151 ft | 467 kts | 76° |
| 2026-04-24 14:29 | 61.64546 | 158.21476 | 31152 ft | 467 kts | 76° |
| 2026-04-24 14:30 | 61.65568 | 158.32610 | 31153 ft | 466 kts | 76° |
| 2026-04-24 14:30 | 61.67000 | 158.48275 | 31158 ft | 466 kts | 76° |
| 2026-04-24 14:31 | 61.68145 | 158.61590 | 31159 ft | 466 kts | 77° |
| 2026-04-24 14:31 | 61.69260 | 158.75036 | 31159 ft | 465 kts | 77° |
| 2026-04-24 14:32 | 61.70388 | 158.88457 | 31161 ft | 465 kts | 77° |
| 2026-04-24 14:32 | 61.71529 | 159.01882 | 31164 ft | 465 kts | 77° |
| 2026-04-24 14:33 | 61.72669 | 159.15286 | 31167 ft | 465 kts | 77° |
| 2026-04-24 14:33 | 61.73809 | 159.28712 | 31172 ft | 465 kts | 77° |
| 2026-04-24 14:34 | 61.74739 | 159.39897 | 31172 ft | 466 kts | 78° |
| 2026-04-24 14:34 | 61.75779 | 159.53390 | 31172 ft | 466 kts | 78° |
| 2026-04-24 14:35 | 61.76983 | 159.69103 | 31179 ft | 466 kts | 78° |
| 2026-04-24 14:35 | 61.77867 | 159.80432 | 31177 ft | 466 kts | 78° |
| 2026-04-24 14:36 | 61.78921 | 159.93859 | 31181 ft | 466 kts | 78° |
| 2026-04-24 14:36 | 61.79982 | 160.07395 | 31184 ft | 467 kts | 78° |
| 2026-04-24 14:37 | 61.81039 | 160.20949 | 31190 ft | 467 kts | 79° |
| 2026-04-24 14:37 | 61.81980 | 160.34563 | 31193 ft | 468 kts | 79° |
| 2026-04-24 14:38 | 61.83037 | 160.48129 | 31199 ft | 467 kts | 78° |
| 2026-04-24 14:38 | 61.84724 | 160.61366 | 31203 ft | 465 kts | 67° |
| 2026-04-24 14:39 | 61.87265 | 160.73983 | 31203 ft | 465 kts | 65° |
| 2026-04-24 14:39 | 61.89903 | 160.86507 | 31205 ft | 465 kts | 65° |
| 2026-04-24 14:40 | 61.92500 | 160.99080 | 31209 ft | 466 kts | 65° |
| 2026-04-24 14:40 | 61.95056 | 161.11726 | 31212 ft | 466 kts | 66° |
| 2026-04-24 14:41 | 61.97599 | 161.24380 | 31214 ft | 466 kts | 66° |
| 2026-04-24 14:41 | 62.00131 | 161.36963 | 31214 ft | 465 kts | 66° |
| 2026-04-24 14:42 | 62.02631 | 161.49682 | 31213 ft | 466 kts | 66° |
| 2026-04-24 14:42 | 62.05095 | 161.62439 | 31217 ft | 466 kts | 67° |
| 2026-04-24 14:43 | 62.07569 | 161.75184 | 31214 ft | 466 kts | 66° |
| 2026-04-24 14:43 | 62.10064 | 161.87998 | 31216 ft | 466 kts | 66° |
| 2026-04-24 14:44 | 62.12551 | 162.00771 | 31216 ft | 466 kts | 66° |
| 2026-04-24 14:44 | 62.15037 | 162.13583 | 31211 ft | 466 kts | 66° |
| 2026-04-24 14:45 | 62.17499 | 162.26416 | 31210 ft | 467 kts | 67° |
| 2026-04-24 14:45 | 62.19900 | 162.39347 | 31211 ft | 467 kts | 68° |
| 2026-04-24 14:46 | 62.22299 | 162.52260 | 31209 ft | 467 kts | 68° |
| 2026-04-24 14:46 | 62.24720 | 162.65212 | 31206 ft | 467 kts | 67° |
| 2026-04-24 14:47 | 62.27142 | 162.78159 | 31204 ft | 467 kts | 67° |
| 2026-04-24 14:47 | 62.29561 | 162.91118 | 31205 ft | 468 kts | 68° |
| 2026-04-24 14:48 | 62.31974 | 163.04102 | 31206 ft | 468 kts | 68° |
| 2026-04-24 14:48 | 62.34321 | 163.17157 | 31202 ft | 468 kts | 68° |
| 2026-04-24 14:49 | 62.36647 | 163.30253 | 31204 ft | 468 kts | 68° |
| 2026-04-24 14:49 | 62.38971 | 163.43246 | 31205 ft | 468 kts | 68° |
| 2026-04-24 14:50 | 62.41321 | 163.56341 | 31206 ft | 468 kts | 68° |
| 2026-04-24 14:50 | 62.43670 | 163.69448 | 31206 ft | 468 kts | 68° |
| 2026-04-24 14:51 | 62.46016 | 163.82578 | 31207 ft | 468 kts | 68° |
| 2026-04-24 14:51 | 62.48318 | 163.95738 | 31211 ft | 468 kts | 69° |
| 2026-04-24 14:52 | 62.50567 | 164.08967 | 31213 ft | 468 kts | 69° |
| 2026-04-24 14:52 | 62.52824 | 164.22189 | 31213 ft | 469 kts | 69° |
| 2026-04-24 14:53 | 62.55097 | 164.35423 | 31213 ft | 468 kts | 69° |
| 2026-04-24 14:53 | 62.57372 | 164.48669 | 31216 ft | 469 kts | 69° |
| 2026-04-24 14:54 | 62.59641 | 164.61922 | 31216 ft | 469 kts | 69° |
| 2026-04-24 14:54 | 62.61898 | 164.75216 | 31215 ft | 469 kts | 70° |
| 2026-04-24 14:55 | 62.63714 | 164.86316 | 31218 ft | 469 kts | 70° |
| 2026-04-24 14:55 | 62.66253 | 165.01949 | 31222 ft | 469 kts | 70° |
| 2026-04-24 14:56 | 62.68445 | 165.15331 | 31224 ft | 469 kts | 70° |
| 2026-04-24 14:56 | 62.70644 | 165.28717 | 31225 ft | 469 kts | 70° |
| 2026-04-24 14:57 | 62.72838 | 165.42103 | 31226 ft | 469 kts | 70° |
| 2026-04-24 14:57 | 62.75029 | 165.55507 | 31227 ft | 469 kts | 70° |
| 2026-04-24 14:58 | 62.77239 | 165.68890 | 31231 ft | 469 kts | 69° |
| 2026-04-24 14:58 | 62.79414 | 165.82317 | 31234 ft | 469 kts | 72° |
| 2026-04-24 14:59 | 62.81331 | 165.95939 | 31230 ft | 469 kts | 72° |
| 2026-04-24 14:59 | 62.83352 | 166.09498 | 31231 ft | 469 kts | 71° |
| 2026-04-24 15:00 | 62.85444 | 166.22906 | 31234 ft | 468 kts | 70° |
| 2026-04-24 15:00 | 62.87557 | 166.36397 | 31226 ft | 468 kts | 70° |
| 2026-04-24 15:01 | 62.89654 | 166.49910 | 31224 ft | 468 kts | 70° |
| 2026-04-24 15:01 | 62.91738 | 166.63438 | 31228 ft | 468 kts | 71° |
| 2026-04-24 15:02 | 62.93720 | 166.77056 | 31228 ft | 469 kts | 72° |
| 2026-04-24 15:02 | 62.95711 | 166.90692 | 31226 ft | 469 kts | 71° |
| 2026-04-24 15:03 | 62.97432 | 167.02093 | 31226 ft | 468 kts | 71° |
| 2026-04-24 15:03 | 62.99811 | 167.17903 | 31229 ft | 469 kts | 71° |
| 2026-04-24 15:04 | 63.01753 | 167.31605 | 31231 ft | 469 kts | 72° |
| 2026-04-24 15:04 | 63.03695 | 167.45313 | 31233 ft | 469 kts | 71° |
| 2026-04-24 15:05 | 63.05662 | 167.59030 | 31231 ft | 469 kts | 71° |
| 2026-04-24 15:05 | 63.07633 | 167.72731 | 31236 ft | 469 kts | 71° |
| 2026-04-24 15:06 | 63.09590 | 167.86469 | 31232 ft | 469 kts | 72° |
| 2026-04-24 15:06 | 63.11481 | 168.00267 | 31234 ft | 470 kts | 72° |
| 2026-04-24 15:07 | 63.13358 | 168.14093 | 31236 ft | 470 kts | 72° |
| 2026-04-24 15:07 | 63.15242 | 168.27930 | 31236 ft | 470 kts | 72° |
| 2026-04-24 15:08 | 63.17119 | 168.41690 | 31235 ft | 470 kts | 72° |
| 2026-04-24 15:08 | 63.19009 | 168.55556 | 31237 ft | 470 kts | 72° |
| 2026-04-24 15:09 | 63.20897 | 168.69447 | 31241 ft | 470 kts | 72° |
| 2026-04-24 15:09 | 63.22736 | 168.83379 | 31242 ft | 471 kts | 73° |
| 2026-04-24 15:10 | 63.24516 | 168.97356 | 31243 ft | 471 kts | 73° |
| 2026-04-24 15:10 | 63.26308 | 169.11325 | 31245 ft | 471 kts | 73° |
| 2026-04-24 15:11 | 63.28116 | 169.25310 | 31247 ft | 471 kts | 73° |
| 2026-04-24 15:11 | 63.29928 | 169.39321 | 31247 ft | 471 kts | 73° |
| 2026-04-24 15:12 | 63.31736 | 169.53337 | 31250 ft | 471 kts | 73° |
| 2026-04-24 15:12 | 63.34365 | 169.74323 | 31253 ft | 472 kts | 74° |
| 2026-04-24 15:13 | 63.36060 | 169.88430 | 31254 ft | 471 kts | 74° |
| 2026-04-24 15:13 | 63.37772 | 170.02549 | 31255 ft | 472 kts | 74° |
| 2026-04-24 15:14 | 63.39497 | 170.16665 | 31258 ft | 472 kts | 74° |
| 2026-04-24 15:14 | 63.41222 | 170.30777 | 31257 ft | 471 kts | 74° |
| 2026-04-24 15:15 | 63.42944 | 170.44914 | 31259 ft | 471 kts | 74° |
| 2026-04-24 15:15 | 63.44631 | 170.59080 | 31261 ft | 472 kts | 75° |
| 2026-04-24 15:16 | 63.46229 | 170.73192 | 31261 ft | 471 kts | 75° |
| 2026-04-24 15:16 | 63.47846 | 170.87411 | 31260 ft | 472 kts | 75° |
| 2026-04-24 15:17 | 63.49479 | 171.01624 | 31255 ft | 472 kts | 75° |
| 2026-04-24 15:17 | 63.51120 | 171.15855 | 31252 ft | 472 kts | 75° |
| 2026-04-24 15:18 | 63.52756 | 171.30091 | 31253 ft | 472 kts | 75° |
| 2026-04-24 15:18 | 63.54381 | 171.44361 | 31250 ft | 472 kts | 76° |
| 2026-04-24 15:19 | 63.55918 | 171.58681 | 31245 ft | 472 kts | 76° |
| 2026-04-24 15:19 | 63.57443 | 171.73033 | 31242 ft | 473 kts | 76° |
| 2026-04-24 15:20 | 63.58986 | 171.87390 | 31235 ft | 473 kts | 76° |
| 2026-04-24 15:20 | 63.60530 | 172.01658 | 31231 ft | 473 kts | 76° |
| 2026-04-24 15:21 | 63.62084 | 172.16043 | 31226 ft | 473 kts | 76° |
| 2026-04-24 15:21 | 63.63633 | 172.30422 | 31221 ft | 473 kts | 76° |
| 2026-04-24 15:22 | 63.65257 | 172.44799 | 31215 ft | 474 kts | 76° |
| 2026-04-24 15:23 | 63.67284 | 172.66616 | 31210 ft | 475 kts | 78° |
| 2026-04-24 15:23 | 63.69403 | 172.88422 | 31149 ft | 476 kts | 77° |
| 2026-04-24 15:24 | 63.71360 | 173.07765 | 30765 ft | 473 kts | 77° |
| 2026-04-24 15:25 | 63.72813 | 173.22223 | 30800 ft | 472 kts | 77° |
| 2026-04-24 15:25 | 63.74256 | 173.36695 | 31041 ft | 472 kts | 77° |
| 2026-04-24 15:26 | 63.76286 | 173.58573 | 30953 ft | 476 kts | 78° |
| 2026-04-24 15:27 | 63.80361 | 174.02621 | 30914 ft | 478 kts | 78° |
| 2026-04-24 15:29 | 63.84161 | 174.46896 | 30906 ft | 477 kts | 79° |
| 2026-04-24 15:31 | 63.88828 | 174.98505 | 30888 ft | 478 kts | 79° |
| 2026-04-24 15:33 | 63.93527 | 175.58036 | 30874 ft | 480 kts | 79° |
| 2026-04-24 15:34 | 63.96502 | 175.95402 | 30867 ft | 480 kts | 80° |
| 2026-04-24 15:35 | 63.99218 | 176.32802 | 30858 ft | 480 kts | 80° |
| 2026-04-24 15:36 | 64.00334 | 176.47786 | 30856 ft | 479 kts | 81° |
| 2026-04-24 15:36 | 64.01995 | 176.70276 | 30847 ft | 479 kts | 81° |
| 2026-04-24 15:37 | 64.03079 | 176.85257 | 30844 ft | 479 kts | 81° |
| 2026-04-24 15:37 | 64.04077 | 177.00310 | 30839 ft | 480 kts | 82° |
| 2026-04-24 15:38 | 64.05065 | 177.15373 | 30836 ft | 479 kts | 82° |
| 2026-04-24 15:38 | 64.06071 | 177.30414 | 30829 ft | 479 kts | 82° |
| 2026-04-24 15:39 | 64.07084 | 177.45443 | 30827 ft | 478 kts | 82° |
| 2026-04-24 15:39 | 64.08099 | 177.60495 | 30831 ft | 480 kts | 82° |
| 2026-04-24 15:40 | 64.09106 | 177.75556 | 30824 ft | 479 kts | 82° |
| 2026-04-24 15:40 | 64.10023 | 177.90659 | 30820 ft | 479 kts | 83° |
| 2026-04-24 15:41 | 64.10912 | 178.05785 | 30816 ft | 479 kts | 83° |
| 2026-04-24 15:41 | 64.11819 | 178.20903 | 30814 ft | 480 kts | 83° |
| 2026-04-24 15:42 | 64.12740 | 178.36040 | 30812 ft | 480 kts | 83° |
| 2026-04-24 15:42 | 64.13664 | 178.51182 | 30803 ft | 480 kts | 83° |
| 2026-04-24 15:43 | 64.14581 | 178.66304 | 30797 ft | 479 kts | 84° |
| 2026-04-24 15:43 | 64.15420 | 178.81438 | 30795 ft | 479 kts | 84° |
| 2026-04-24 15:44 | 64.16212 | 178.96605 | 30786 ft | 479 kts | 85° |
| 2026-04-24 15:44 | 64.17017 | 179.11768 | 30782 ft | 479 kts | 85° |
| 2026-04-24 15:45 | 64.17837 | 179.26921 | 30772 ft | 479 kts | 85° |
| 2026-04-24 15:45 | 64.18654 | 179.41985 | 30760 ft | 479 kts | 85° |
| 2026-04-24 15:46 | 64.19486 | 179.57284 | 30749 ft | 480 kts | 85° |
| 2026-04-24 15:46 | 64.20251 | 179.72415 | 30744 ft | 481 kts | 86° |
| 2026-04-24 15:47 | 64.20948 | 179.87719 | 30734 ft | 480 kts | 86° |
| 2026-04-24 15:47 | 64.21656 | -179.97003 | 30717 ft | 481 kts | 86° |
| 2026-04-24 15:48 | 64.22384 | -179.81717 | 30725 ft | 482 kts | 86° |
| 2026-04-24 15:48 | 64.23117 | -179.66421 | 30716 ft | 481 kts | 86° |
| 2026-04-24 15:49 | 64.23843 | -179.51122 | 30710 ft | 481 kts | 86° |
| 2026-04-24 15:49 | 64.24545 | -179.35803 | 30699 ft | 481 kts | 88° |
| 2026-04-24 15:50 | 64.25144 | -179.20613 | 30696 ft | 480 kts | 88° |
| 2026-04-24 15:50 | 64.25743 | -179.05322 | 30688 ft | 480 kts | 88° |
| 2026-04-24 15:51 | 64.26369 | -178.90034 | 30682 ft | 480 kts | 88° |
| 2026-04-24 15:51 | 64.27001 | -178.74747 | 30679 ft | 480 kts | 88° |
| 2026-04-24 15:52 | 64.27629 | -178.59459 | 30674 ft | 480 kts | 88° |
| 2026-04-24 15:52 | 64.28243 | -178.44171 | 30667 ft | 479 kts | 89° |
| 2026-04-24 15:53 | 64.28762 | -178.28878 | 30669 ft | 479 kts | 90° |
| 2026-04-24 15:53 | 64.29256 | -178.13586 | 30665 ft | 479 kts | 89° |
| 2026-04-24 15:54 | 64.29775 | -177.98278 | 30662 ft | 479 kts | 89° |
| 2026-04-24 15:54 | 64.30308 | -177.82980 | 30662 ft | 479 kts | 89° |
| 2026-04-24 15:55 | 64.30834 | -177.67755 | 30656 ft | 479 kts | 90° |
| 2026-04-24 15:55 | 64.31092 | -177.60165 | 30658 ft | 468 kts | 90° |
| 2026-04-24 15:55 | 64.31346 | -177.52842 | 30655 ft | 445 kts | 90° |
| 2026-04-24 15:56 | 64.31597 | -177.45943 | 30481 ft | 422 kts | 90° |
| 2026-04-24 15:56 | 64.31844 | -177.39269 | 29712 ft | 417 kts | 91° |
| 2026-04-24 15:56 | 64.32100 | -177.32570 | 28376 ft | 422 kts | 91° |
| 2026-04-24 15:56 | 64.32358 | -177.25849 | 27275 ft | 420 kts | 91° |
| 2026-04-24 15:57 | 64.32617 | -177.19159 | 26299 ft | 417 kts | 91° |
| 2026-04-24 15:57 | 64.32877 | -177.12549 | 25492 ft | 410 kts | 91° |
| 2026-04-24 15:57 | 64.33055 | -177.08155 | 25026 ft | 404 kts | 91° |
| 2026-04-24 15:57 | 64.33420 | -176.99733 | 24176 ft | 395 kts | 91° |
| 2026-04-24 15:58 | 64.33756 | -176.93415 | 23518 ft | 394 kts | 89° |
| 2026-04-24 15:58 | 64.34185 | -176.87226 | 22796 ft | 388 kts | 88° |
| 2026-04-24 15:58 | 64.34688 | -176.81151 | 21972 ft | 382 kts | 85° |
| 2026-04-24 15:58 | 64.35243 | -176.75188 | 21110 ft | 378 kts | 84° |
| 2026-04-24 15:59 | 64.35831 | -176.69314 | 20271 ft | 373 kts | 83° |
| 2026-04-24 15:59 | 64.36435 | -176.63537 | 19492 ft | 367 kts | 82° |
| 2026-04-24 15:59 | 64.37040 | -176.57860 | 18762 ft | 360 kts | 82° |
| 2026-04-24 15:59 | 64.37634 | -176.52287 | 18034 ft | 354 kts | 82° |
| 2026-04-24 16:00 | 64.38199 | -176.46879 | 17677 ft | 336 kts | 82° |
| 2026-04-24 16:00 | 64.38721 | -176.41821 | 17539 ft | 312 kts | 83° |
| 2026-04-24 16:00 | 64.39197 | -176.37012 | 16873 ft | 306 kts | 83° |
| 2026-04-24 16:00 | 64.39634 | -176.32138 | 15655 ft | 315 kts | 84° |
| 2026-04-24 16:01 | 64.40059 | -176.26996 | 14173 ft | 335 kts | 83° |
| 2026-04-24 16:01 | 64.40524 | -176.21631 | 13078 ft | 342 kts | 83° |
| 2026-04-24 16:01 | 64.40968 | -176.16342 | 12557 ft | 327 kts | 83° |
| 2026-04-24 16:01 | 64.41335 | -176.11226 | 11771 ft | 324 kts | 85° |
| 2026-04-24 16:02 | 64.41590 | -176.06198 | 11367 ft | 304 kts | 89° |
| 2026-04-24 16:02 | 64.41733 | -176.01447 | 10849 ft | 290 kts | 91° |
| 2026-04-24 16:02 | 64.41778 | -175.96810 | 9926 ft | 289 kts | 92° |
| 2026-04-24 16:02 | 64.41865 | -175.92446 | 8895 ft | 296 kts | 89° |
| 2026-04-24 16:03 | 64.42076 | -175.87927 | 8778 ft | 269 kts | 86° |
| 2026-04-24 16:03 | 64.42354 | -175.83839 | 8422 ft | 253 kts | 83° |
| 2026-04-24 16:03 | 64.42852 | -175.79772 | 7251 ft | 271 kts | 73° |
| 2026-04-24 16:03 | 64.43559 | -175.75944 | 7207 ft | 244 kts | 70° |
| 2026-04-24 16:04 | 64.44314 | -175.72477 | 6615 ft | 243 kts | 67° |
| 2026-04-24 16:04 | 64.45064 | -175.69389 | 6971 ft | 203 kts | 66° |
| 2026-04-24 16:04 | 64.45672 | -175.66637 | 6884 ft | 180 kts | 80° |
| 2026-04-24 16:04 | 64.45881 | -175.63973 | 6795 ft | 162 kts | 94° |
| 2026-04-24 16:05 | 64.45782 | -175.58982 | 6356 ft | 149 kts | 99° |
| 2026-04-24 16:05 | 64.45667 | -175.56518 | 5855 ft | 161 kts | 101° |
| 2026-04-24 16:06 | 64.45401 | -175.51449 | 5535 ft | 151 kts | 105° |
| 2026-04-24 16:06 | 64.45124 | -175.48958 | 5783 ft | 164 kts | 105° |
| 2026-04-24 16:06 | 64.45283 | -175.43716 | 6840 ft | 155 kts | 75° |
| 2026-04-24 16:07 | 64.45729 | -175.41401 | 7263 ft | 156 kts | 69° |
| 2026-04-24 16:07 | 64.46257 | -175.39235 | 7625 ft | 150 kts | 62° |
| 2026-04-24 16:07 | 64.47752 | -175.35007 | 7997 ft | 171 kts | 72° |
| 2026-04-24 16:08 | 64.48117 | -175.32663 | 8176 ft | 147 kts | 83° |
| 2026-04-24 16:08 | 64.48668 | -175.27735 | 7327 ft | 161 kts | 82° |
| 2026-04-24 16:09 | 64.49108 | -175.22919 | 6825 ft | 151 kts | 90° |
| 2026-04-24 16:09 | 64.49218 | -175.20635 | 6789 ft | 129 kts | 90° |
| 2026-04-24 16:09 | 64.49282 | -175.19274 | 6606 ft | 126 kts | 91° |
| 2026-04-24 16:09 | 64.49411 | -175.16456 | 6101 ft | 128 kts | 92° |
| 2026-04-24 16:10 | 64.49916 | -175.10994 | 5383 ft | 114 kts | 86° |
| 2026-04-24 16:11 | 64.49470 | -175.07612 | 4685 ft | 109 kts | 129° |
| 2026-04-24 16:11 | 64.48980 | -175.06383 | 4424 ft | 106 kts | 128° |
| 2026-04-24 16:11 | 64.48492 | -175.04812 | 3820 ft | 125 kts | 127° |
| 2026-04-24 16:12 | 64.47108 | -175.02332 | 2968 ft | 136 kts | 143° |
| 2026-04-24 16:12 | 64.46554 | -175.01658 | 2720 ft | 136 kts | 143° |
| 2026-04-24 16:12 | 64.45160 | -174.99107 | 2040 ft | 120 kts | 105° |
| 2026-04-24 16:13 | 64.44986 | -174.97253 | 1720 ft | 117 kts | 101° |
| 2026-04-24 16:13 | 64.44202 | -174.93883 | 961 ft | 126 kts | 123° |
| 2026-04-24 16:14 | 64.43007 | -174.90285 | 1592 ft | 117 kts | 121° |